sensor_id;sensor_type;location;lat;lon;timestamp;P1;durP1;ratioP1;P2;durP2;ratioP2
47219;SDS011;32961;51.936;4.788;2023-07-24T00:02:05;6.88;;;3.88;;
47219;SDS011;32961;51.936;4.788;2023-07-24T00:04:33;7.65;;;4.47;;
47219;SDS011;32961;51.936;4.788;2023-07-24T00:07:01;4.20;;;3.60;;
47219;SDS011;32961;51.936;4.788;2023-07-24T00:09:29;5.03;;;3.67;;
47219;SDS011;32961;51.936;4.788;2023-07-24T00:11:58;4.28;;;3.42;;
47219;SDS011;32961;51.936;4.788;2023-07-24T00:14:26;5.20;;;3.90;;
47219;SDS011;32961;51.936;4.788;2023-07-24T00:16:54;7.10;;;3.92;;
47219;SDS011;32961;51.936;4.788;2023-07-24T00:19:23;4.35;;;3.60;;
47219;SDS011;32961;51.936;4.788;2023-07-24T00:21:51;5.38;;;3.65;;
47219;SDS011;32961;51.936;4.788;2023-07-24T00:24:19;5.55;;;3.15;;
47219;SDS011;32961;51.936;4.788;2023-07-24T00:26:47;4.55;;;3.20;;
47219;SDS011;32961;51.936;4.788;2023-07-24T00:29:16;4.90;;;3.20;;
47219;SDS011;32961;51.936;4.788;2023-07-24T00:31:44;7.32;;;3.40;;
47219;SDS011;32961;51.936;4.788;2023-07-24T00:34:11;5.25;;;3.33;;
47219;SDS011;32961;51.936;4.788;2023-07-24T00:36:39;4.30;;;3.78;;
47219;SDS011;32961;51.936;4.788;2023-07-24T00:39:08;3.83;;;3.28;;
47219;SDS011;32961;51.936;4.788;2023-07-24T00:41:36;4.60;;;3.35;;
47219;SDS011;32961;51.936;4.788;2023-07-24T00:44:03;4.20;;;3.45;;
47219;SDS011;32961;51.936;4.788;2023-07-24T00:46:33;4.40;;;3.30;;
47219;SDS011;32961;51.936;4.788;2023-07-24T00:49:02;12.18;;;3.38;;
47219;SDS011;32961;51.936;4.788;2023-07-24T00:51:32;4.45;;;3.45;;
47219;SDS011;32961;51.936;4.788;2023-07-24T00:54:02;3.88;;;3.13;;
47219;SDS011;32961;51.936;4.788;2023-07-24T00:56:30;4.50;;;3.38;;
47219;SDS011;32961;51.936;4.788;2023-07-24T00:59:02;5.65;;;3.70;;
47219;SDS011;32961;51.936;4.788;2023-07-24T01:01:30;3.47;;;3.08;;
47219;SDS011;32961;51.936;4.788;2023-07-24T01:04:00;4.30;;;3.53;;
47219;SDS011;32961;51.936;4.788;2023-07-24T01:06:30;5.57;;;3.38;;
47219;SDS011;32961;51.936;4.788;2023-07-24T01:08:58;4.60;;;3.58;;
47219;SDS011;32961;51.936;4.788;2023-07-24T01:11:27;5.72;;;3.50;;
47219;SDS011;32961;51.936;4.788;2023-07-24T01:14:02;5.18;;;3.40;;
47219;SDS011;32961;51.936;4.788;2023-07-24T01:16:36;7.30;;;4.70;;
47219;SDS011;32961;51.936;4.788;2023-07-24T01:19:10;5.13;;;3.30;;
47219;SDS011;32961;51.936;4.788;2023-07-24T01:21:44;3.88;;;3.28;;
47219;SDS011;32961;51.936;4.788;2023-07-24T01:24:23;4.60;;;3.22;;
47219;SDS011;32961;51.936;4.788;2023-07-24T01:26:58;5.63;;;4.57;;
47219;SDS011;32961;51.936;4.788;2023-07-24T01:29:26;5.72;;;2.67;;
47219;SDS011;32961;51.936;4.788;2023-07-24T01:31:54;3.60;;;2.80;;
47219;SDS011;32961;51.936;4.788;2023-07-24T01:34:23;3.38;;;2.65;;
47219;SDS011;32961;51.936;4.788;2023-07-24T01:36:50;7.28;;;3.50;;
47219;SDS011;32961;51.936;4.788;2023-07-24T01:39:19;3.97;;;3.20;;
47219;SDS011;32961;51.936;4.788;2023-07-24T01:41:48;3.55;;;2.97;;
47219;SDS011;32961;51.936;4.788;2023-07-24T01:44:19;4.93;;;3.42;;
47219;SDS011;32961;51.936;4.788;2023-07-24T01:46:47;3.75;;;2.97;;
47219;SDS011;32961;51.936;4.788;2023-07-24T01:49:15;4.50;;;3.13;;
47219;SDS011;32961;51.936;4.788;2023-07-24T01:51:43;4.60;;;3.10;;
47219;SDS011;32961;51.936;4.788;2023-07-24T01:54:10;7.47;;;3.97;;
47219;SDS011;32961;51.936;4.788;2023-07-24T01:56:39;5.53;;;3.40;;
47219;SDS011;32961;51.936;4.788;2023-07-24T01:59:07;3.53;;;2.95;;
47219;SDS011;32961;51.936;4.788;2023-07-24T02:01:36;4.93;;;3.28;;
47219;SDS011;32961;51.936;4.788;2023-07-24T02:04:04;9.30;;;3.03;;
47219;SDS011;32961;51.936;4.788;2023-07-24T02:06:32;4.80;;;3.20;;
47219;SDS011;32961;51.936;4.788;2023-07-24T02:09:00;6.13;;;3.60;;
47219;SDS011;32961;51.936;4.788;2023-07-24T02:11:28;4.13;;;3.10;;
47219;SDS011;32961;51.936;4.788;2023-07-24T02:13:56;5.25;;;3.20;;
47219;SDS011;32961;51.936;4.788;2023-07-24T02:16:26;6.93;;;3.78;;
47219;SDS011;32961;51.936;4.788;2023-07-24T02:18:59;6.30;;;3.70;;
47219;SDS011;32961;51.936;4.788;2023-07-24T02:21:29;6.32;;;3.80;;
47219;SDS011;32961;51.936;4.788;2023-07-24T02:23:57;5.60;;;3.97;;
47219;SDS011;32961;51.936;4.788;2023-07-24T02:26:25;7.38;;;4.45;;
47219;SDS011;32961;51.936;4.788;2023-07-24T02:28:53;6.68;;;4.38;;
47219;SDS011;32961;51.936;4.788;2023-07-24T02:31:21;8.32;;;4.05;;
47219;SDS011;32961;51.936;4.788;2023-07-24T02:33:49;6.22;;;4.50;;
47219;SDS011;32961;51.936;4.788;2023-07-24T02:36:20;7.38;;;4.00;;
47219;SDS011;32961;51.936;4.788;2023-07-24T02:38:48;7.10;;;5.05;;
47219;SDS011;32961;51.936;4.788;2023-07-24T02:41:16;5.93;;;4.93;;
47219;SDS011;32961;51.936;4.788;2023-07-24T02:43:43;6.68;;;4.32;;
47219;SDS011;32961;51.936;4.788;2023-07-24T02:46:11;6.93;;;4.65;;
47219;SDS011;32961;51.936;4.788;2023-07-24T02:48:40;8.30;;;4.70;;
47219;SDS011;32961;51.936;4.788;2023-07-24T02:51:07;7.22;;;4.57;;
47219;SDS011;32961;51.936;4.788;2023-07-24T02:53:37;7.97;;;5.07;;
47219;SDS011;32961;51.936;4.788;2023-07-24T02:56:08;10.83;;;4.40;;
47219;SDS011;32961;51.936;4.788;2023-07-24T02:58:47;7.13;;;4.57;;
47219;SDS011;32961;51.936;4.788;2023-07-24T03:01:29;4.97;;;4.00;;
47219;SDS011;32961;51.936;4.788;2023-07-24T03:04:11;5.93;;;4.10;;
47219;SDS011;32961;51.936;4.788;2023-07-24T03:09:13;6.22;;;4.28;;
47219;SDS011;32961;51.936;4.788;2023-07-24T03:11:45;4.40;;;3.70;;
47219;SDS011;32961;51.936;4.788;2023-07-24T03:14:15;4.63;;;4.00;;
47219;SDS011;32961;51.936;4.788;2023-07-24T03:16:43;5.07;;;3.67;;
47219;SDS011;32961;51.936;4.788;2023-07-24T03:19:11;6.97;;;4.18;;
47219;SDS011;32961;51.936;4.788;2023-07-24T03:21:50;5.88;;;3.70;;
47219;SDS011;32961;51.936;4.788;2023-07-24T03:24:19;7.40;;;4.22;;
47219;SDS011;32961;51.936;4.788;2023-07-24T03:26:48;8.40;;;4.30;;
47219;SDS011;32961;51.936;4.788;2023-07-24T03:29:16;7.95;;;4.18;;
47219;SDS011;32961;51.936;4.788;2023-07-24T03:31:44;6.38;;;4.50;;
47219;SDS011;32961;51.936;4.788;2023-07-24T03:34:12;4.63;;;4.15;;
47219;SDS011;32961;51.936;4.788;2023-07-24T03:36:40;7.72;;;4.30;;
47219;SDS011;32961;51.936;4.788;2023-07-24T03:39:09;6.05;;;4.22;;
47219;SDS011;32961;51.936;4.788;2023-07-24T03:41:38;6.00;;;4.30;;
47219;SDS011;32961;51.936;4.788;2023-07-24T03:44:08;6.20;;;4.53;;
47219;SDS011;32961;51.936;4.788;2023-07-24T03:46:54;5.32;;;3.92;;
47219;SDS011;32961;51.936;4.788;2023-07-24T03:49:32;6.80;;;4.70;;
47219;SDS011;32961;51.936;4.788;2023-07-24T03:52:00;9.77;;;5.38;;
47219;SDS011;32961;51.936;4.788;2023-07-24T03:54:39;8.32;;;4.68;;
47219;SDS011;32961;51.936;4.788;2023-07-24T03:57:12;7.82;;;5.07;;
47219;SDS011;32961;51.936;4.788;2023-07-24T03:59:58;10.10;;;5.55;;
47219;SDS011;32961;51.936;4.788;2023-07-24T04:02:30;8.70;;;5.60;;
47219;SDS011;32961;51.936;4.788;2023-07-24T04:05:06;9.68;;;5.70;;
47219;SDS011;32961;51.936;4.788;2023-07-24T04:07:58;7.40;;;5.30;;
47219;SDS011;32961;51.936;4.788;2023-07-24T04:10:45;6.78;;;5.60;;
47219;SDS011;32961;51.936;4.788;2023-07-24T04:13:21;11.75;;;6.55;;
47219;SDS011;32961;51.936;4.788;2023-07-24T04:16:22;9.23;;;6.90;;
47219;SDS011;32961;51.936;4.788;2023-07-24T04:18:54;8.98;;;5.88;;
47219;SDS011;32961;51.936;4.788;2023-07-24T04:21:25;7.97;;;6.03;;
47219;SDS011;32961;51.936;4.788;2023-07-24T04:24:12;9.13;;;5.40;;
47219;SDS011;32961;51.936;4.788;2023-07-24T04:27:14;9.02;;;5.82;;
47219;SDS011;32961;51.936;4.788;2023-07-24T04:30:11;10.55;;;7.20;;
47219;SDS011;32961;51.936;4.788;2023-07-24T04:32:55;13.10;;;6.88;;
47219;SDS011;32961;51.936;4.788;2023-07-24T04:35:30;8.38;;;5.40;;
47219;SDS011;32961;51.936;4.788;2023-07-24T04:40:59;8.65;;;5.70;;
47219;SDS011;32961;51.936;4.788;2023-07-24T04:51:09;9.45;;;4.95;;
47219;SDS011;32961;51.936;4.788;2023-07-24T04:53:39;10.02;;;5.43;;
47219;SDS011;32961;51.936;4.788;2023-07-24T04:56:33;9.77;;;5.30;;
47219;SDS011;32961;51.936;4.788;2023-07-24T04:59:08;12.95;;;5.60;;
47219;SDS011;32961;51.936;4.788;2023-07-24T05:01:55;16.40;;;5.30;;
47219;SDS011;32961;51.936;4.788;2023-07-24T05:04:30;6.70;;;5.38;;
47219;SDS011;32961;51.936;4.788;2023-07-24T05:07:02;15.07;;;5.53;;
47219;SDS011;32961;51.936;4.788;2023-07-24T05:09:39;14.88;;;5.45;;
47219;SDS011;32961;51.936;4.788;2023-07-24T05:12:10;11.32;;;5.90;;
47219;SDS011;32961;51.936;4.788;2023-07-24T05:14:57;9.77;;;5.68;;
47219;SDS011;32961;51.936;4.788;2023-07-24T05:17:39;10.98;;;5.93;;
47219;SDS011;32961;51.936;4.788;2023-07-24T05:20:11;13.57;;;5.95;;
47219;SDS011;32961;51.936;4.788;2023-07-24T05:22:44;10.38;;;5.78;;
47219;SDS011;32961;51.936;4.788;2023-07-24T05:25:30;10.95;;;5.82;;
47219;SDS011;32961;51.936;4.788;2023-07-24T05:28:09;10.70;;;6.07;;
47219;SDS011;32961;51.936;4.788;2023-07-24T05:30:56;13.10;;;6.78;;
47219;SDS011;32961;51.936;4.788;2023-07-24T05:33:31;10.13;;;5.90;;
47219;SDS011;32961;51.936;4.788;2023-07-24T05:36:25;13.73;;;6.20;;
47219;SDS011;32961;51.936;4.788;2023-07-24T05:39:01;10.40;;;5.93;;
47219;SDS011;32961;51.936;4.788;2023-07-24T05:41:37;13.27;;;6.38;;
47219;SDS011;32961;51.936;4.788;2023-07-24T05:44:11;13.65;;;5.68;;
47219;SDS011;32961;51.936;4.788;2023-07-24T05:46:39;17.02;;;6.45;;
47219;SDS011;32961;51.936;4.788;2023-07-24T05:49:07;12.38;;;6.38;;
47219;SDS011;32961;51.936;4.788;2023-07-24T05:51:36;9.95;;;5.80;;
47219;SDS011;32961;51.936;4.788;2023-07-24T05:54:15;13.50;;;6.13;;
47219;SDS011;32961;51.936;4.788;2023-07-24T05:56:43;11.05;;;6.07;;
47219;SDS011;32961;51.936;4.788;2023-07-24T05:59:16;10.80;;;6.28;;
47219;SDS011;32961;51.936;4.788;2023-07-24T06:01:45;11.10;;;6.22;;
47219;SDS011;32961;51.936;4.788;2023-07-24T06:04:13;13.68;;;6.57;;
47219;SDS011;32961;51.936;4.788;2023-07-24T06:06:42;11.93;;;6.40;;
47219;SDS011;32961;51.936;4.788;2023-07-24T06:09:11;12.52;;;6.10;;
47219;SDS011;32961;51.936;4.788;2023-07-24T06:11:39;20.50;;;7.10;;
47219;SDS011;32961;51.936;4.788;2023-07-24T06:14:06;13.43;;;5.78;;
47219;SDS011;32961;51.936;4.788;2023-07-24T06:16:34;10.10;;;5.70;;
47219;SDS011;32961;51.936;4.788;2023-07-24T06:19:02;13.07;;;5.60;;
47219;SDS011;32961;51.936;4.788;2023-07-24T06:21:30;9.63;;;5.25;;
47219;SDS011;32961;51.936;4.788;2023-07-24T06:24:00;9.45;;;5.03;;
47219;SDS011;32961;51.936;4.788;2023-07-24T06:26:31;12.75;;;4.93;;
47219;SDS011;32961;51.936;4.788;2023-07-24T06:28:59;20.05;;;5.45;;
47219;SDS011;32961;51.936;4.788;2023-07-24T06:31:27;11.35;;;4.80;;
47219;SDS011;32961;51.936;4.788;2023-07-24T06:33:55;11.43;;;5.10;;
47219;SDS011;32961;51.936;4.788;2023-07-24T06:36:23;12.15;;;4.90;;
47219;SDS011;32961;51.936;4.788;2023-07-24T06:38:51;10.13;;;4.57;;
47219;SDS011;32961;51.936;4.788;2023-07-24T06:41:20;10.30;;;4.88;;
47219;SDS011;32961;51.936;4.788;2023-07-24T06:43:49;11.82;;;4.95;;
47219;SDS011;32961;51.936;4.788;2023-07-24T06:46:17;12.95;;;5.00;;
47219;SDS011;32961;51.936;4.788;2023-07-24T06:48:45;8.07;;;4.13;;
47219;SDS011;32961;51.936;4.788;2023-07-24T06:51:13;13.88;;;5.05;;
47219;SDS011;32961;51.936;4.788;2023-07-24T06:53:41;9.70;;;4.72;;
47219;SDS011;32961;51.936;4.788;2023-07-24T06:56:09;9.20;;;4.28;;
47219;SDS011;32961;51.936;4.788;2023-07-24T06:58:38;11.38;;;4.75;;
47219;SDS011;32961;51.936;4.788;2023-07-24T07:01:06;9.43;;;5.25;;
47219;SDS011;32961;51.936;4.788;2023-07-24T07:03:34;10.98;;;5.55;;
47219;SDS011;32961;51.936;4.788;2023-07-24T07:06:02;11.52;;;6.18;;
47219;SDS011;32961;51.936;4.788;2023-07-24T07:08:30;9.43;;;5.63;;
47219;SDS011;32961;51.936;4.788;2023-07-24T07:10:58;12.75;;;6.18;;
47219;SDS011;32961;51.936;4.788;2023-07-24T07:13:27;12.30;;;5.85;;
47219;SDS011;32961;51.936;4.788;2023-07-24T07:15:57;13.68;;;5.22;;
47219;SDS011;32961;51.936;4.788;2023-07-24T07:18:25;10.68;;;6.00;;
47219;SDS011;32961;51.936;4.788;2023-07-24T07:20:53;13.90;;;6.22;;
47219;SDS011;32961;51.936;4.788;2023-07-24T07:23:21;8.38;;;5.78;;
47219;SDS011;32961;51.936;4.788;2023-07-24T07:25:50;9.88;;;5.65;;
47219;SDS011;32961;51.936;4.788;2023-07-24T07:28:18;10.35;;;5.82;;
47219;SDS011;32961;51.936;4.788;2023-07-24T07:30:46;10.70;;;5.93;;
47219;SDS011;32961;51.936;4.788;2023-07-24T07:33:18;8.95;;;6.43;;
47219;SDS011;32961;51.936;4.788;2023-07-24T07:35:48;11.40;;;5.93;;
47219;SDS011;32961;51.936;4.788;2023-07-24T07:38:16;15.32;;;5.82;;
47219;SDS011;32961;51.936;4.788;2023-07-24T07:40:44;10.13;;;5.95;;
47219;SDS011;32961;51.936;4.788;2023-07-24T07:43:12;15.68;;;5.40;;
47219;SDS011;32961;51.936;4.788;2023-07-24T07:45:40;8.35;;;5.35;;
47219;SDS011;32961;51.936;4.788;2023-07-24T07:48:10;12.65;;;5.40;;
47219;SDS011;32961;51.936;4.788;2023-07-24T07:50:40;10.75;;;5.97;;
47219;SDS011;32961;51.936;4.788;2023-07-24T07:53:07;10.10;;;5.47;;
47219;SDS011;32961;51.936;4.788;2023-07-24T07:55:35;14.80;;;5.75;;
47219;SDS011;32961;51.936;4.788;2023-07-24T07:58:07;10.80;;;5.40;;
47219;SDS011;32961;51.936;4.788;2023-07-24T08:00:55;7.65;;;5.38;;
47219;SDS011;32961;51.936;4.788;2023-07-24T08:03:24;12.40;;;6.05;;
47219;SDS011;32961;51.936;4.788;2023-07-24T08:08:38;7.53;;;5.10;;
47219;SDS011;32961;51.936;4.788;2023-07-24T08:11:13;11.98;;;5.50;;
47219;SDS011;32961;51.936;4.788;2023-07-24T08:14:10;10.02;;;5.28;;
47219;SDS011;32961;51.936;4.788;2023-07-24T08:16:58;8.63;;;4.40;;
47219;SDS011;32961;51.936;4.788;2023-07-24T08:20:03;11.32;;;4.95;;
47219;SDS011;32961;51.936;4.788;2023-07-24T08:22:45;15.10;;;6.05;;
47219;SDS011;32961;51.936;4.788;2023-07-24T08:25:58;12.68;;;5.63;;
47219;SDS011;32961;51.936;4.788;2023-07-24T08:29:27;11.05;;;5.68;;
47219;SDS011;32961;51.936;4.788;2023-07-24T08:32:15;10.18;;;5.30;;
47219;SDS011;32961;51.936;4.788;2023-07-24T08:42:23;13.38;;;5.63;;
47219;SDS011;32961;51.936;4.788;2023-07-24T08:44:52;13.05;;;6.03;;
47219;SDS011;32961;51.936;4.788;2023-07-24T08:47:21;11.63;;;4.40;;
47219;SDS011;32961;51.936;4.788;2023-07-24T08:49:50;12.32;;;4.80;;
47219;SDS011;32961;51.936;4.788;2023-07-24T08:52:21;7.95;;;4.80;;
47219;SDS011;32961;51.936;4.788;2023-07-24T08:55:03;11.38;;;4.55;;
47219;SDS011;32961;51.936;4.788;2023-07-24T08:57:33;10.00;;;4.57;;
47219;SDS011;32961;51.936;4.788;2023-07-24T09:00:01;12.63;;;5.22;;
47219;SDS011;32961;51.936;4.788;2023-07-24T09:02:31;9.52;;;4.40;;
47219;SDS011;32961;51.936;4.788;2023-07-24T09:04:59;12.60;;;5.03;;
47219;SDS011;32961;51.936;4.788;2023-07-24T09:07:28;10.48;;;4.68;;
47219;SDS011;32961;51.936;4.788;2023-07-24T09:09:57;10.23;;;4.25;;
47219;SDS011;32961;51.936;4.788;2023-07-24T09:12:26;9.73;;;4.63;;
47219;SDS011;32961;51.936;4.788;2023-07-24T09:15:00;13.05;;;4.60;;
47219;SDS011;32961;51.936;4.788;2023-07-24T09:17:32;10.88;;;4.60;;
47219;SDS011;32961;51.936;4.788;2023-07-24T09:20:00;11.35;;;6.30;;
47219;SDS011;32961;51.936;4.788;2023-07-24T09:22:30;15.50;;;6.20;;
47219;SDS011;32961;51.936;4.788;2023-07-24T09:25:00;12.35;;;4.53;;
47219;SDS011;32961;51.936;4.788;2023-07-24T09:27:31;10.13;;;5.00;;
47219;SDS011;32961;51.936;4.788;2023-07-24T09:30:01;15.35;;;5.50;;
47219;SDS011;32961;51.936;4.788;2023-07-24T09:32:28;20.92;;;4.88;;
47219;SDS011;32961;51.936;4.788;2023-07-24T09:34:58;19.25;;;5.22;;
47219;SDS011;32961;51.936;4.788;2023-07-24T09:37:26;17.67;;;4.78;;
47219;SDS011;32961;51.936;4.788;2023-07-24T09:39:55;9.20;;;5.30;;
47219;SDS011;32961;51.936;4.788;2023-07-24T09:42:31;9.95;;;5.10;;
47219;SDS011;32961;51.936;4.788;2023-07-24T09:44:59;18.85;;;5.80;;
47219;SDS011;32961;51.936;4.788;2023-07-24T09:47:28;11.25;;;4.72;;
47219;SDS011;32961;51.936;4.788;2023-07-24T09:50:16;7.18;;;4.50;;
47219;SDS011;32961;51.936;4.788;2023-07-24T09:52:44;9.88;;;5.53;;
47219;SDS011;32961;51.936;4.788;2023-07-24T09:55:16;9.13;;;5.57;;
47219;SDS011;32961;51.936;4.788;2023-07-24T09:57:50;13.65;;;4.75;;
47219;SDS011;32961;51.936;4.788;2023-07-24T10:00:21;11.30;;;4.57;;
47219;SDS011;32961;51.936;4.788;2023-07-24T10:02:49;15.48;;;5.93;;
47219;SDS011;32961;51.936;4.788;2023-07-24T10:05:18;8.93;;;4.57;;
47219;SDS011;32961;51.936;4.788;2023-07-24T10:07:46;11.40;;;5.05;;
47219;SDS011;32961;51.936;4.788;2023-07-24T10:10:14;8.18;;;4.38;;
47219;SDS011;32961;51.936;4.788;2023-07-24T10:12:43;6.85;;;4.20;;
47219;SDS011;32961;51.936;4.788;2023-07-24T10:15:12;10.90;;;4.28;;
47219;SDS011;32961;51.936;4.788;2023-07-24T10:17:41;10.68;;;4.65;;
47219;SDS011;32961;51.936;4.788;2023-07-24T10:20:10;10.90;;;4.30;;
47219;SDS011;32961;51.936;4.788;2023-07-24T10:22:40;12.65;;;5.60;;
47219;SDS011;32961;51.936;4.788;2023-07-24T10:25:09;11.98;;;4.55;;
47219;SDS011;32961;51.936;4.788;2023-07-24T10:27:39;9.68;;;4.53;;
47219;SDS011;32961;51.936;4.788;2023-07-24T10:30:09;12.13;;;4.57;;
47219;SDS011;32961;51.936;4.788;2023-07-24T10:33:04;8.07;;;3.83;;
47219;SDS011;32961;51.936;4.788;2023-07-24T10:35:40;9.15;;;4.35;;
47219;SDS011;32961;51.936;4.788;2023-07-24T10:38:09;8.80;;;3.83;;
47219;SDS011;32961;51.936;4.788;2023-07-24T10:40:37;10.40;;;4.05;;
47219;SDS011;32961;51.936;4.788;2023-07-24T10:43:08;10.73;;;4.15;;
47219;SDS011;32961;51.936;4.788;2023-07-24T10:45:46;7.38;;;3.97;;
47219;SDS011;32961;51.936;4.788;2023-07-24T10:48:17;10.75;;;4.28;;
47219;SDS011;32961;51.936;4.788;2023-07-24T10:50:46;7.28;;;3.72;;
47219;SDS011;32961;51.936;4.788;2023-07-24T10:55:48;6.65;;;3.70;;
47219;SDS011;32961;51.936;4.788;2023-07-24T10:58:17;10.50;;;4.28;;
47219;SDS011;32961;51.936;4.788;2023-07-24T11:00:45;8.48;;;4.22;;
47219;SDS011;32961;51.936;4.788;2023-07-24T11:03:14;8.27;;;4.00;;
47219;SDS011;32961;51.936;4.788;2023-07-24T11:05:44;10.00;;;4.10;;
47219;SDS011;32961;51.936;4.788;2023-07-24T11:08:13;9.82;;;3.95;;
47219;SDS011;32961;51.936;4.788;2023-07-24T11:10:45;7.05;;;3.60;;
47219;SDS011;32961;51.936;4.788;2023-07-24T11:13:17;8.43;;;4.03;;
47219;SDS011;32961;51.936;4.788;2023-07-24T11:15:46;7.88;;;3.58;;
47219;SDS011;32961;51.936;4.788;2023-07-24T11:18:15;7.97;;;3.90;;
47219;SDS011;32961;51.936;4.788;2023-07-24T11:20:45;7.75;;;3.47;;
47219;SDS011;32961;51.936;4.788;2023-07-24T11:23:14;6.85;;;3.38;;
47219;SDS011;32961;51.936;4.788;2023-07-24T11:25:42;9.27;;;3.42;;
47219;SDS011;32961;51.936;4.788;2023-07-24T11:28:12;6.00;;;3.25;;
47219;SDS011;32961;51.936;4.788;2023-07-24T11:30:41;9.05;;;4.20;;
47219;SDS011;32961;51.936;4.788;2023-07-24T11:33:09;7.85;;;3.75;;
47219;SDS011;32961;51.936;4.788;2023-07-24T11:35:42;8.02;;;3.60;;
47219;SDS011;32961;51.936;4.788;2023-07-24T11:38:12;6.13;;;3.50;;
47219;SDS011;32961;51.936;4.788;2023-07-24T11:40:41;11.05;;;4.05;;
47219;SDS011;32961;51.936;4.788;2023-07-24T11:43:15;7.15;;;3.42;;
47219;SDS011;32961;51.936;4.788;2023-07-24T11:45:44;8.13;;;3.15;;
47219;SDS011;32961;51.936;4.788;2023-07-24T11:48:13;7.70;;;3.60;;
47219;SDS011;32961;51.936;4.788;2023-07-24T11:50:41;7.57;;;3.60;;
47219;SDS011;32961;51.936;4.788;2023-07-24T11:53:19;12.45;;;3.85;;
47219;SDS011;32961;51.936;4.788;2023-07-24T11:55:49;8.80;;;3.47;;
47219;SDS011;32961;51.936;4.788;2023-07-24T11:58:17;6.70;;;3.13;;
47219;SDS011;32961;51.936;4.788;2023-07-24T12:00:46;8.98;;;3.67;;
47219;SDS011;32961;51.936;4.788;2023-07-24T12:03:15;8.05;;;3.80;;
47219;SDS011;32961;51.936;4.788;2023-07-24T12:05:47;9.00;;;3.17;;
47219;SDS011;32961;51.936;4.788;2023-07-24T12:08:16;4.25;;;2.45;;
47219;SDS011;32961;51.936;4.788;2023-07-24T12:10:46;12.00;;;3.30;;
47219;SDS011;32961;51.936;4.788;2023-07-24T12:13:15;6.72;;;3.42;;
47219;SDS011;32961;51.936;4.788;2023-07-24T12:15:47;8.95;;;3.58;;
47219;SDS011;32961;51.936;4.788;2023-07-24T12:18:15;8.65;;;2.92;;
47219;SDS011;32961;51.936;4.788;2023-07-24T12:20:43;4.72;;;3.00;;
47219;SDS011;32961;51.936;4.788;2023-07-24T12:23:10;6.28;;;2.88;;
47219;SDS011;32961;51.936;4.788;2023-07-24T12:25:38;5.75;;;2.92;;
47219;SDS011;32961;51.936;4.788;2023-07-24T12:28:07;4.15;;;2.70;;
47219;SDS011;32961;51.936;4.788;2023-07-24T12:30:35;6.50;;;2.80;;
47219;SDS011;32961;51.936;4.788;2023-07-24T12:33:03;7.05;;;2.95;;
47219;SDS011;32961;51.936;4.788;2023-07-24T12:35:31;9.35;;;3.30;;
47219;SDS011;32961;51.936;4.788;2023-07-24T12:37:59;5.15;;;3.03;;
47219;SDS011;32961;51.936;4.788;2023-07-24T12:40:27;7.60;;;3.03;;
47219;SDS011;32961;51.936;4.788;2023-07-24T12:42:54;9.43;;;3.35;;
47219;SDS011;32961;51.936;4.788;2023-07-24T12:45:23;6.93;;;3.35;;
47219;SDS011;32961;51.936;4.788;2023-07-24T12:47:51;8.15;;;4.57;;
47219;SDS011;32961;51.936;4.788;2023-07-24T12:50:22;15.93;;;5.50;;
47219;SDS011;32961;51.936;4.788;2023-07-24T12:52:51;12.90;;;5.22;;
47219;SDS011;32961;51.936;4.788;2023-07-24T12:55:19;12.68;;;5.45;;
47219;SDS011;32961;51.936;4.788;2023-07-24T12:57:47;9.07;;;3.88;;
47219;SDS011;32961;51.936;4.788;2023-07-24T13:00:15;6.28;;;3.75;;
47219;SDS011;32961;51.936;4.788;2023-07-24T13:02:44;8.30;;;3.60;;
47219;SDS011;32961;51.936;4.788;2023-07-24T13:05:12;5.05;;;3.30;;
47219;SDS011;32961;51.936;4.788;2023-07-24T13:07:40;5.60;;;3.63;;
47219;SDS011;32961;51.936;4.788;2023-07-24T13:10:08;5.82;;;3.22;;
47219;SDS011;32961;51.936;4.788;2023-07-24T13:12:36;4.28;;;2.88;;
47219;SDS011;32961;51.936;4.788;2023-07-24T13:15:05;3.65;;;2.58;;
47219;SDS011;32961;51.936;4.788;2023-07-24T13:17:33;4.70;;;4.03;;
47219;SDS011;32961;51.936;4.788;2023-07-24T13:20:04;4.40;;;2.83;;
47219;SDS011;32961;51.936;4.788;2023-07-24T13:22:33;5.80;;;3.85;;
47219;SDS011;32961;51.936;4.788;2023-07-24T13:25:01;6.50;;;3.53;;
47219;SDS011;32961;51.936;4.788;2023-07-24T13:27:29;3.10;;;2.38;;
47219;SDS011;32961;51.936;4.788;2023-07-24T13:29:57;3.50;;;2.70;;
47219;SDS011;32961;51.936;4.788;2023-07-24T13:32:24;2.50;;;2.00;;
47219;SDS011;32961;51.936;4.788;2023-07-24T13:34:52;3.95;;;2.00;;
47219;SDS011;32961;51.936;4.788;2023-07-24T13:37:21;4.85;;;2.13;;
47219;SDS011;32961;51.936;4.788;2023-07-24T13:39:50;3.55;;;1.77;;
47219;SDS011;32961;51.936;4.788;2023-07-24T13:42:18;3.53;;;1.95;;
47219;SDS011;32961;51.936;4.788;2023-07-24T13:44:46;5.05;;;2.38;;
47219;SDS011;32961;51.936;4.788;2023-07-24T13:47:14;5.10;;;1.98;;
47219;SDS011;32961;51.936;4.788;2023-07-24T13:49:42;7.47;;;3.10;;
47219;SDS011;32961;51.936;4.788;2023-07-24T13:52:09;3.83;;;1.95;;
47219;SDS011;32961;51.936;4.788;2023-07-24T13:54:39;5.93;;;2.03;;
47219;SDS011;32961;51.936;4.788;2023-07-24T13:57:06;4.40;;;2.20;;
47219;SDS011;32961;51.936;4.788;2023-07-24T13:59:34;5.75;;;1.77;;
47219;SDS011;32961;51.936;4.788;2023-07-24T14:02:04;6.05;;;2.28;;
47219;SDS011;32961;51.936;4.788;2023-07-24T14:04:32;7.13;;;2.03;;
47219;SDS011;32961;51.936;4.788;2023-07-24T14:07:00;8.65;;;2.08;;
47219;SDS011;32961;51.936;4.788;2023-07-24T14:09:27;9.23;;;2.10;;
47219;SDS011;32961;51.936;4.788;2023-07-24T14:11:58;6.47;;;1.95;;
47219;SDS011;32961;51.936;4.788;2023-07-24T14:14:26;6.00;;;1.83;;
47219;SDS011;32961;51.936;4.788;2023-07-24T14:16:54;5.35;;;1.90;;
47219;SDS011;32961;51.936;4.788;2023-07-24T14:19:22;5.32;;;1.75;;
47219;SDS011;32961;51.936;4.788;2023-07-24T14:21:50;10.77;;;2.78;;
47219;SDS011;32961;51.936;4.788;2023-07-24T14:24:18;8.65;;;2.50;;
47219;SDS011;32961;51.936;4.788;2023-07-24T14:26:46;4.50;;;2.08;;
47219;SDS011;32961;51.936;4.788;2023-07-24T14:29:16;7.00;;;2.10;;
47219;SDS011;32961;51.936;4.788;2023-07-24T14:31:44;5.82;;;1.70;;
47219;SDS011;32961;51.936;4.788;2023-07-24T14:34:12;5.40;;;1.63;;
47219;SDS011;32961;51.936;4.788;2023-07-24T14:36:40;7.32;;;2.17;;
47219;SDS011;32961;51.936;4.788;2023-07-24T14:39:08;4.57;;;1.65;;
47219;SDS011;32961;51.936;4.788;2023-07-24T14:41:36;7.07;;;1.90;;
47219;SDS011;32961;51.936;4.788;2023-07-24T14:44:04;4.90;;;1.50;;
47219;SDS011;32961;51.936;4.788;2023-07-24T14:46:33;3.97;;;1.25;;
47219;SDS011;32961;51.936;4.788;2023-07-24T14:49:01;4.15;;;1.50;;
47219;SDS011;32961;51.936;4.788;2023-07-24T14:51:29;7.90;;;1.90;;
47219;SDS011;32961;51.936;4.788;2023-07-24T14:53:57;8.50;;;2.25;;
47219;SDS011;32961;51.936;4.788;2023-07-24T14:56:25;6.38;;;1.80;;
47219;SDS011;32961;51.936;4.788;2023-07-24T15:01:38;8.48;;;1.70;;
47219;SDS011;32961;51.936;4.788;2023-07-24T15:04:06;3.47;;;1.35;;
47219;SDS011;32961;51.936;4.788;2023-07-24T15:06:34;6.20;;;1.67;;
47219;SDS011;32961;51.936;4.788;2023-07-24T15:09:02;5.93;;;1.60;;
47219;SDS011;32961;51.936;4.788;2023-07-24T15:11:30;3.45;;;1.60;;
47219;SDS011;32961;51.936;4.788;2023-07-24T15:13:58;6.05;;;1.42;;
47219;SDS011;32961;51.936;4.788;2023-07-24T15:16:25;6.82;;;1.58;;
47219;SDS011;32961;51.936;4.788;2023-07-24T15:18:55;6.97;;;1.40;;
47219;SDS011;32961;51.936;4.788;2023-07-24T15:21:23;5.53;;;1.33;;
47219;SDS011;32961;51.936;4.788;2023-07-24T15:23:50;5.38;;;1.40;;
47219;SDS011;32961;51.936;4.788;2023-07-24T15:26:19;5.70;;;1.17;;
47219;SDS011;32961;51.936;4.788;2023-07-24T15:28:47;4.65;;;1.17;;
47219;SDS011;32961;51.936;4.788;2023-07-24T15:31:15;3.72;;;1.20;;
47219;SDS011;32961;51.936;4.788;2023-07-24T15:33:42;4.78;;;1.25;;
47219;SDS011;32961;51.936;4.788;2023-07-24T15:36:12;4.28;;;1.23;;